Time;durP1;ratioP1;P1;durP2;ratioP2;P2;SDS_P1;SDS_P2;PMS_P1;PMS_P2;Temp;Humidity;BMP_temperature;BMP_pressure;BME280_temperature;BME280_humidity;BME280_pressure;Samples;Min_cycle;Max_cycle;Signal;HPM_P1;HPM_P2
2021/12/07 00:00:52;;;;;;;73.10;39.03;;;1.20;99.90;;;;;;2104984;28;20477;-70
2021/12/07 00:01:54;;;;;;;76.45;39.15;;;1.10;99.90;;;;;;2112737;28;20074;-70
2021/12/07 00:02:55;;;;;;;75.85;38.33;;;1.10;99.90;;;;;;2114037;28;20043;-69
2021/12/07 00:03:56;;;;;;;72.18;37.78;;;1.10;99.90;;;;;;2114125;28;20051;-70
2021/12/07 00:04:57;;;;;;;68.72;36.60;;;1.10;99.90;;;;;;2113246;28;20393;-69
2021/12/07 00:05:58;;;;;;;70.25;37.25;;;1.10;99.90;;;;;;2104798;28;20028;-70
2021/12/07 00:06:59;;;;;;;69.35;36.13;;;1.10;99.90;;;;;;2113454;28;20031;-69
2021/12/07 00:08:00;;;;;;;68.65;36.28;;;1.10;99.90;;;;;;2114013;28;20024;-68
2021/12/07 00:09:03;;;;;;;70.90;37.03;;;1.10;99.90;;;;;;2113312;28;20123;-69
2021/12/07 00:10:04;;;;;;;69.95;35.65;;;1.10;99.90;;;;;;2113428;28;20512;-69
2021/12/07 00:11:04;;;;;;;68.90;35.03;;;1.10;99.90;;;;;;2113301;28;20043;-68
2021/12/07 00:12:06;;;;;;;65.63;35.92;;;1.20;99.90;;;;;;2112619;28;20664;-68
2021/12/07 00:13:09;;;;;;;72.13;38.20;;;1.20;99.90;;;;;;2112908;28;20435;-69
2021/12/07 00:14:15;;;;;;;74.97;37.92;;;1.20;99.90;;;;;;2113265;28;20020;-69
2021/12/07 00:15:21;;;;;;;76.68;38.60;;;1.20;99.90;;;;;;2113827;28;20131;-69
2021/12/07 00:16:21;;;;;;;74.28;37.75;;;1.20;99.90;;;;;;2114104;28;20023;-69
2021/12/07 00:17:22;;;;;;;68.88;36.85;;;1.20;99.90;;;;;;2114035;28;20020;-69
2021/12/07 00:18:22;;;;;;;68.68;35.40;;;1.20;99.90;;;;;;2113827;28;20404;-69
2021/12/07 00:19:23;;;;;;;66.57;34.75;;;1.20;99.90;;;;;;2113284;28;20028;-69
2021/12/07 00:20:24;;;;;;;68.95;35.10;;;1.20;99.90;;;;;;2112781;28;20513;-69
2021/12/07 00:21:25;;;;;;;64.57;34.70;;;1.20;99.90;;;;;;2112681;28;20094;-69
2021/12/07 00:22:26;;;;;;;61.95;33.22;;;1.20;99.90;;;;;;2113004;28;20024;-72
2021/12/07 00:23:27;;;;;;;62.40;33.03;;;1.20;99.90;;;;;;2113945;28;20088;-70
2021/12/07 00:24:28;;;;;;;63.03;33.80;;;1.20;99.90;;;;;;2113719;28;20553;-70
2021/12/07 00:25:29;;;;;;;63.58;33.25;;;1.30;99.90;;;;;;2113961;27;20035;-69
2021/12/07 00:26:29;;;;;;;60.17;32.60;;;1.20;99.90;;;;;;2113853;28;20430;-69
2021/12/07 00:27:30;;;;;;;59.08;31.33;;;1.20;99.90;;;;;;2120928;27;20065;-69
2021/12/07 00:28:31;;;;;;;65.30;33.70;;;1.20;99.90;;;;;;2122458;27;20141;-69
2021/12/07 00:29:32;;;;;;;63.80;33.88;;;1.20;99.90;;;;;;2121755;27;20035;-70
2021/12/07 00:30:34;;;;;;;62.55;33.00;;;1.20;99.90;;;;;;2117953;27;20046;-70
2021/12/07 00:31:44;;;;;;;61.50;33.35;;;1.20;99.90;;;;;;2115777;27;20023;-69
2021/12/07 00:32:56;;;;;;;60.60;32.67;;;1.20;99.90;;;;;;2114234;27;20156;-70
2021/12/07 00:36:20;;;;;;;58.40;30.92;;;1.20;99.90;;;;;;2117048;27;20107;-69
2021/12/07 00:37:20;;;;;;;56.17;29.92;;;1.20;99.90;;;;;;2117758;27;20487;-70
2021/12/07 00:38:24;;;;;;;54.42;29.25;;;1.20;99.90;;;;;;2117944;27;20039;-69
2021/12/07 00:39:26;;;;;;;53.95;28.73;;;1.10;99.90;;;;;;2108523;28;20042;-70
2021/12/07 00:40:27;;;;;;;55.67;30.30;;;1.20;99.90;;;;;;2110136;28;20086;-70
2021/12/07 00:41:27;;;;;;;54.47;29.20;;;1.20;99.90;;;;;;2116514;27;20028;-71
2021/12/07 00:42:28;;;;;;;52.83;28.88;;;1.20;99.90;;;;;;2118323;27;20043;-69
2021/12/07 00:43:29;;;;;;;56.75;30.02;;;1.20;99.90;;;;;;2116540;27;20035;-69
2021/12/07 00:44:30;;;;;;;54.72;29.42;;;1.20;99.90;;;;;;2118588;27;20039;-69
2021/12/07 00:45:33;;;;;;;53.97;28.65;;;1.20;99.90;;;;;;2107603;28;20031;-69
2021/12/07 00:46:35;;;;;;;50.53;27.25;;;1.20;99.90;;;;;;2104828;28;20037;-69
2021/12/07 00:47:36;;;;;;;53.65;28.40;;;1.20;99.90;;;;;;2113350;28;20073;-69
2021/12/07 00:48:37;;;;;;;55.28;28.77;;;1.20;99.90;;;;;;2118732;27;20168;-70
2021/12/07 00:49:37;;;;;;;57.95;29.90;;;1.20;99.90;;;;;;2100967;28;20516;-69
2021/12/07 00:50:41;;;;;;;54.72;29.23;;;1.20;99.90;;;;;;2108677;28;20506;-70
2021/12/07 00:51:43;;;;;;;50.88;28.15;;;1.20;99.90;;;;;;2116334;27;20034;-69
2021/12/07 00:52:44;;;;;;;51.10;27.95;;;1.10;99.90;;;;;;2117730;27;20072;-69
2021/12/07 00:53:44;;;;;;;54.58;28.10;;;1.20;99.90;;;;;;2116724;27;20094;-70
2021/12/07 00:54:46;;;;;;;53.47;27.67;;;1.20;99.90;;;;;;2109625;27;20576;-69
2021/12/07 00:55:49;;;;;;;53.35;28.52;;;1.20;99.90;;;;;;2110348;28;20019;-71
2021/12/07 00:56:50;;;;;;;51.10;27.48;;;1.20;99.90;;;;;;2115553;27;20036;-71
2021/12/07 00:57:56;;;;;;;52.35;27.85;;;1.20;99.90;;;;;;2117229;27;20042;-69
2021/12/07 00:58:57;;;;;;;51.10;27.42;;;1.20;99.90;;;;;;2113917;27;20132;-70
2021/12/07 00:59:57;;;;;;;50.22;27.25;;;1.20;99.90;;;;;;2118059;27;20123;-70
2021/12/07 01:01:05;;;;;;;54.78;28.85;;;1.20;99.90;;;;;;2116679;27;20027;-70
2021/12/07 01:02:06;;;;;;;51.10;27.92;;;1.20;99.90;;;;;;2113254;27;20020;-71
2021/12/07 01:03:07;;;;;;;50.05;26.88;;;1.20;99.90;;;;;;2118926;27;20803;-71
2021/12/07 01:04:08;;;;;;;48.03;26.48;;;1.20;99.90;;;;;;2117369;27;20023;-69
2021/12/07 01:05:17;;;;;;;47.33;26.20;;;1.20;99.90;;;;;;2118602;27;20019;-70
2021/12/07 01:24:40;;;;;;;50.92;26.95;;;1.20;99.90;;;;;;2127576;27;20018;-69
2021/12/07 01:24:44;;;;;;;46.88;24.85;;;1.10;99.90;;;;;;2114325;27;20026;-71
2021/12/07 01:25:45;;;;;;;47.72;25.42;;;1.10;99.90;;;;;;2119351;27;20012;-72
2021/12/07 01:26:46;;;;;;;44.70;24.38;;;1.20;99.90;;;;;;2121120;27;20447;-71
2021/12/07 01:27:50;;;;;;;50.67;26.27;;;1.20;99.90;;;;;;2111626;28;20035;-71
2021/12/07 01:28:50;;;;;;;47.15;25.67;;;1.20;99.90;;;;;;2108698;28;20048;-71
2021/12/07 01:30:06;;;;;;;48.97;25.67;;;1.20;99.90;;;;;;2110682;28;20428;-71
2021/12/07 01:31:21;;;;;;;47.47;25.42;;;1.20;99.90;;;;;;2122239;28;20032;-71
2021/12/07 01:33:48;;;;;;;45.30;24.67;;;1.20;99.90;;;;;;2117228;27;20499;-71
2021/12/07 01:39:32;;;;;;;44.33;24.58;;;1.30;99.90;;;;;;2113856;28;20093;-71
2021/12/07 01:40:23;;;;;;;46.13;24.40;;;1.30;99.90;;;;;;2109981;27;20571;-71
2021/12/07 01:43:17;;;;;;;46.05;23.60;;;1.20;99.90;;;;;;2120137;27;19907;-70
2021/12/07 01:44:30;;;;;;;47.15;24.73;;;1.20;99.90;;;;;;2118646;28;20024;-70
2021/12/07 01:47:11;;;;;;;50.05;26.60;;;1.20;99.90;;;;;;2118950;28;20016;-71
2021/12/07 01:49:56;;;;;;;49.78;25.75;;;1.20;99.90;;;;;;2116716;27;20120;-71
2021/12/07 02:00:10;;;;;;;48.63;25.20;;;1.20;99.90;;;;;;2122164;27;20466;-71
2021/12/07 02:01:13;;;;;;;51.05;27.05;;;1.20;99.90;;;;;;2120424;27;20065;-71
2021/12/07 02:02:16;;;;;;;48.47;25.88;;;1.20;99.90;;;;;;2116847;27;20072;-70
2021/12/07 02:03:17;;;;;;;49.20;26.10;;;1.20;99.90;;;;;;2109568;27;20020;-71
2021/12/07 02:04:18;;;;;;;49.35;26.80;;;1.20;99.90;;;;;;2111342;28;20353;-70
2021/12/07 02:05:19;;;;;;;48.80;26.27;;;1.20;99.90;;;;;;2112326;28;20121;-70
2021/12/07 02:06:19;;;;;;;49.72;25.98;;;1.20;99.90;;;;;;2114705;28;20043;-70
2021/12/07 02:07:23;;;;;;;47.00;26.00;;;1.20;99.90;;;;;;2114810;28;20117;-70
2021/12/07 02:08:25;;;;;;;48.85;26.27;;;1.10;99.90;;;;;;2115364;27;20039;-70
2021/12/07 02:09:26;;;;;;;50.33;27.33;;;1.10;99.90;;;;;;2114685;28;20692;-70
2021/12/07 02:10:30;;;;;;;53.45;28.42;;;1.10;99.90;;;;;;2114261;28;20059;-71
2021/12/07 02:11:35;;;;;;;50.30;27.50;;;1.00;99.90;;;;;;2117823;27;20080;-69
2021/12/07 02:12:43;;;;;;;49.35;27.17;;;1.00;99.90;;;;;;2106434;28;20020;-71
2021/12/07 02:14:48;;;;;;;54.50;28.00;;;0.90;99.90;;;;;;2118389;27;20030;-71
2021/12/07 02:15:49;;;;;;;51.30;27.30;;;0.80;99.90;;;;;;2120113;27;20489;-71
2021/12/07 02:16:56;;;;;;;51.13;27.52;;;0.80;99.90;;;;;;2109885;27;20394;-70
2021/12/07 02:17:58;;;;;;;50.28;27.45;;;0.80;99.90;;;;;;2104031;28;20021;-70
2021/12/07 02:18:58;;;;;;;52.28;27.60;;;0.70;99.90;;;;;;2110840;28;20027;-70
2021/12/07 02:19:59;;;;;;;51.33;27.70;;;0.70;99.90;;;;;;2114665;28;20043;-70
2021/12/07 02:21:18;;;;;;;49.60;27.38;;;0.70;99.90;;;;;;2101574;28;20023;-70
2021/12/07 02:22:27;;;;;;;51.40;26.48;;;0.70;99.90;;;;;;2114333;27;20070;-70
2021/12/07 02:23:27;;;;;;;50.38;26.05;;;0.70;99.90;;;;;;2117374;27;20034;-71
2021/12/07 02:24:29;;;;;;;49.55;26.30;;;0.70;99.90;;;;;;2120009;27;20023;-71
2021/12/07 02:25:32;;;;;;;52.50;28.58;;;0.70;99.90;;;;;;2111285;28;20051;-71
2021/12/07 02:26:33;;;;;;;51.00;27.33;;;0.70;99.90;;;;;;2106523;28;20562;-70
2021/12/07 02:27:36;;;;;;;51.35;27.60;;;0.70;99.90;;;;;;2106357;28;20051;-71
2021/12/07 02:28:40;;;;;;;48.38;26.58;;;0.70;99.90;;;;;;2117224;27;20042;-71
2021/12/07 02:29:41;;;;;;;52.15;27.70;;;0.70;99.90;;;;;;2111714;27;20016;-71
2021/12/07 02:30:44;;;;;;;53.25;28.50;;;0.70;99.90;;;;;;2114710;28;20065;-71
2021/12/07 02:31:44;;;;;;;52.60;28.08;;;0.70;99.90;;;;;;2122313;27;20049;-70
2021/12/07 02:32:51;;;;;;;53.35;27.10;;;0.70;99.90;;;;;;2114806;28;20020;-71
2021/12/07 02:33:53;;;;;;;53.05;28.80;;;0.70;99.90;;;;;;2115408;27;20027;-71
2021/12/07 02:34:58;;;;;;;52.63;29.05;;;0.70;99.90;;;;;;2114568;27;20024;-69
2021/12/07 02:36:01;;;;;;;56.83;29.20;;;0.80;99.90;;;;;;2115231;27;20043;-69
2021/12/07 02:37:02;;;;;;;53.55;27.23;;;0.80;99.90;;;;;;2122139;27;20441;-72
2021/12/07 02:38:05;;;;;;;50.75;27.70;;;0.80;99.90;;;;;;2112633;28;20587;-71
2021/12/07 02:39:11;;;;;;;51.55;26.48;;;0.90;99.90;;;;;;2107162;27;20020;-71
2021/12/07 02:40:11;;;;;;;53.25;27.45;;;0.90;99.90;;;;;;2120208;27;20031;-71
2021/12/07 02:41:16;;;;;;;52.22;27.75;;;0.90;99.90;;;;;;2117572;27;20034;-72
2021/12/07 02:42:17;;;;;;;49.83;27.08;;;0.90;99.90;;;;;;2110928;28;21430;-69
2021/12/07 02:43:18;;;;;;;49.28;27.17;;;0.90;99.90;;;;;;2109964;27;20064;-71
2021/12/07 02:44:19;;;;;;;56.97;29.60;;;1.00;99.90;;;;;;2118166;27;20035;-71
2021/12/07 02:45:22;;;;;;;54.63;28.38;;;1.00;99.90;;;;;;2119849;27;20042;-71
2021/12/07 02:46:22;;;;;;;52.78;28.08;;;1.00;99.90;;;;;;2117773;27;20027;-71
2021/12/07 02:47:28;;;;;;;49.95;27.08;;;1.00;99.90;;;;;;2114834;27;20475;-71
2021/12/07 02:48:29;;;;;;;55.38;28.73;;;1.00;99.90;;;;;;2118128;27;20101;-71
2021/12/07 02:49:32;;;;;;;52.15;28.17;;;1.00;99.90;;;;;;2119309;27;20054;-71
2021/12/07 02:50:34;;;;;;;53.10;27.67;;;1.00;99.90;;;;;;2108943;28;20036;-71
2021/12/07 02:51:36;;;;;;;52.15;28.20;;;1.00;99.90;;;;;;2102278;28;20048;-71
2021/12/07 02:52:38;;;;;;;55.75;28.90;;;1.00;99.90;;;;;;2111478;27;20047;-71
2021/12/07 02:53:41;;;;;;;53.22;28.48;;;1.00;99.90;;;;;;2117456;27;20015;-71
2021/12/07 02:54:49;;;;;;;50.05;27.02;;;1.00;99.90;;;;;;2110644;28;20039;-70
2021/12/07 02:55:56;;;;;;;54.92;27.65;;;1.00;99.90;;;;;;2112240;27;20098;-71
2021/12/07 02:56:56;;;;;;;51.55;27.30;;;1.00;99.90;;;;;;2108738;28;20024;-71
2021/12/07 02:57:57;;;;;;;51.20;27.30;;;1.10;99.90;;;;;;2117228;27;20024;-71
2021/12/07 02:59:03;;;;;;;51.67;27.70;;;1.10;99.90;;;;;;2119467;27;20019;-72
2021/12/07 03:00:13;;;;;;;52.42;27.85;;;1.10;99.90;;;;;;2109945;28;20028;-71
2021/12/07 03:01:25;;;;;;;53.17;28.05;;;1.10;99.90;;;;;;2110216;28;20077;-71
2021/12/07 03:02:26;;;;;;;50.38;27.27;;;1.10;99.90;;;;;;2112590;27;20032;-72
2021/12/07 03:03:31;;;;;;;53.20;28.30;;;1.10;99.90;;;;;;2110288;27;20150;-71
2021/12/07 03:04:38;;;;;;;51.33;27.88;;;1.10;99.90;;;;;;2117543;27;20644;-71
2021/12/07 03:05:56;;;;;;;53.83;28.67;;;1.10;99.90;;;;;;2112095;28;20030;-70
2021/12/07 03:26:36;;;;;;;52.90;27.15;;;1.10;99.90;;;;;;2119564;27;20028;-70
2021/12/07 03:27:37;;;;;;;51.72;27.00;;;1.10;99.90;;;;;;2119648;27;20373;-71
2021/12/07 03:28:44;;;;;;;51.38;28.10;;;1.20;99.90;;;;;;2119497;27;20027;-71
2021/12/07 03:29:46;;;;;;;49.53;26.50;;;1.10;99.90;;;;;;2114001;28;20062;-71
2021/12/07 03:30:47;;;;;;;56.35;28.15;;;1.20;99.90;;;;;;2105569;28;20020;-71
2021/12/07 03:31:49;;;;;;;52.25;26.85;;;1.20;99.90;;;;;;2108508;28;20055;-71
2021/12/07 03:32:50;;;;;;;52.40;27.63;;;1.20;99.90;;;;;;2110039;28;20028;-70
2021/12/07 03:33:53;;;;;;;48.55;26.48;;;1.20;99.90;;;;;;2108924;28;20026;-72
2021/12/07 03:34:54;;;;;;;52.13;27.83;;;1.20;99.90;;;;;;2110779;28;20120;-70
2021/12/07 03:35:56;;;;;;;54.85;29.83;;;1.20;99.90;;;;;;2108646;28;20031;-71
2021/12/07 03:36:57;;;;;;;53.65;28.85;;;1.20;99.90;;;;;;2119302;27;20095;-70
2021/12/07 03:38:00;;;;;;;52.70;27.98;;;1.20;99.90;;;;;;2108104;27;20493;-71
2021/12/07 03:39:01;;;;;;;52.88;28.02;;;1.20;99.90;;;;;;2110592;28;20389;-70
2021/12/07 03:40:03;;;;;;;54.53;29.00;;;1.20;99.90;;;;;;2117149;27;20473;-70
2021/12/07 03:41:04;;;;;;;52.83;27.83;;;1.10;99.90;;;;;;2113886;27;20031;-71
2021/12/07 03:42:05;;;;;;;51.88;27.63;;;1.10;99.90;;;;;;2117597;27;20015;-71
2021/12/07 03:43:07;;;;;;;51.75;26.95;;;1.10;99.90;;;;;;2117803;27;20143;-70
2021/12/07 03:44:08;;;;;;;49.10;26.90;;;1.10;99.90;;;;;;2119341;27;20060;-70
2021/12/07 03:45:10;;;;;;;55.03;29.08;;;1.10;99.90;;;;;;2118523;27;20027;-70
2021/12/07 03:46:13;;;;;;;53.97;28.65;;;1.10;99.90;;;;;;2118742;27;20027;-70
2021/12/07 03:47:14;;;;;;;53.53;28.60;;;1.10;99.90;;;;;;2108717;28;20019;-71
2021/12/07 03:48:15;;;;;;;53.67;27.85;;;1.10;99.90;;;;;;2110650;28;20019;-70
2021/12/07 03:49:16;;;;;;;52.63;27.77;;;1.10;99.90;;;;;;2113403;28;20023;-71
2021/12/07 03:50:20;;;;;;;55.42;28.85;;;1.00;99.90;;;;;;2113862;28;20042;-70
2021/12/07 03:51:22;;;;;;;51.80;27.90;;;1.00;99.90;;;;;;2114236;27;20066;-69
2021/12/07 03:52:23;;;;;;;54.80;28.20;;;1.00;99.90;;;;;;2113169;27;20030;-70
2021/12/07 03:53:24;;;;;;;55.80;28.83;;;1.00;99.90;;;;;;2113703;28;20043;-70
2021/12/07 03:54:25;;;;;;;55.65;29.45;;;1.00;99.90;;;;;;2113757;28;20049;-69
2021/12/07 03:55:26;;;;;;;53.67;28.92;;;1.00;99.90;;;;;;2122394;27;20114;-70
2021/12/07 03:56:27;;;;;;;57.92;29.98;;;1.00;99.90;;;;;;2122289;27;20046;-71
2021/12/07 03:57:27;;;;;;;55.53;29.48;;;1.00;99.90;;;;;;2113860;28;20026;-70
2021/12/07 03:58:28;;;;;;;55.88;29.35;;;1.00;99.90;;;;;;2113830;28;20020;-70
2021/12/07 03:59:29;;;;;;;56.92;29.98;;;1.00;99.90;;;;;;2113627;28;20508;-69
2021/12/07 04:00:34;;;;;;;52.38;28.13;;;1.00;99.90;;;;;;2113750;28;20056;-70
2021/12/07 04:01:35;;;;;;;51.70;27.85;;;1.00;99.90;;;;;;2113433;28;20026;-70
2021/12/07 04:02:40;;;;;;;54.47;28.73;;;1.00;99.90;;;;;;2122423;27;20035;-70
2021/12/07 04:03:42;;;;;;;56.55;29.70;;;1.00;99.90;;;;;;2122294;27;20042;-71
2021/12/07 04:04:44;;;;;;;60.10;30.25;;;1.00;99.90;;;;;;2122446;27;20027;-72
2021/12/07 04:05:49;;;;;;;55.67;27.83;;;1.00;99.90;;;;;;2122326;27;20062;-71
2021/12/07 04:06:54;;;;;;;51.38;27.73;;;1.00;99.90;;;;;;2115088;27;20027;-70
2021/12/07 04:07:56;;;;;;;54.38;28.45;;;1.00;99.90;;;;;;2113942;27;20066;-72
2021/12/07 04:08:56;;;;;;;53.25;27.45;;;1.00;99.90;;;;;;2105689;28;20480;-71
2021/12/07 04:09:57;;;;;;;52.30;26.90;;;1.00;99.90;;;;;;2113935;28;20043;-70
2021/12/07 04:10:58;;;;;;;56.53;29.25;;;1.00;99.90;;;;;;2122527;27;20030;-71
2021/12/07 04:11:59;;;;;;;52.63;27.70;;;1.00;99.90;;;;;;2122264;27;20019;-70
2021/12/07 04:13:00;;;;;;;54.00;27.95;;;1.00;99.90;;;;;;2122216;27;20534;-70
2021/12/07 04:14:01;;;;;;;52.97;27.92;;;0.90;99.90;;;;;;2113713;28;20027;-72
2021/12/07 04:15:06;;;;;;;51.60;27.50;;;0.90;99.90;;;;;;2114013;27;20510;-70
2021/12/07 04:16:08;;;;;;;48.55;26.08;;;0.90;99.90;;;;;;2114201;27;20024;-72
2021/12/07 04:17:09;;;;;;;55.47;28.08;;;0.90;99.90;;;;;;2113632;28;20462;-71
2021/12/07 04:18:10;;;;;;;56.38;29.27;;;0.80;99.90;;;;;;2113746;28;20028;-70
2021/12/07 04:19:11;;;;;;;55.45;28.42;;;0.80;99.90;;;;;;2113728;28;20420;-70
2021/12/07 04:20:14;;;;;;;52.97;27.88;;;0.80;99.90;;;;;;2105162;28;20531;-70
2021/12/07 04:21:16;;;;;;;54.35;27.58;;;0.70;99.90;;;;;;2105053;28;20035;-71
2021/12/07 04:22:16;;;;;;;54.67;28.17;;;0.70;99.90;;;;;;2112998;28;20139;-70
2021/12/07 04:23:17;;;;;;;55.10;27.90;;;0.70;99.90;;;;;;2122269;27;20677;-70
2021/12/07 04:24:18;;;;;;;53.85;28.55;;;0.60;99.90;;;;;;2122964;27;20110;-70
2021/12/07 04:25:19;;;;;;;56.10;28.52;;;0.60;99.90;;;;;;2123005;27;20046;-71
2021/12/07 04:26:19;;;;;;;54.15;28.35;;;0.60;99.90;;;;;;2122801;27;20029;-70
2021/12/07 04:27:20;;;;;;;54.70;29.15;;;0.50;99.90;;;;;;2122966;27;20034;-70
2021/12/07 04:28:21;;;;;;;56.75;29.23;;;0.50;99.90;;;;;;2122317;27;20407;-70
2021/12/07 04:29:22;;;;;;;57.25;29.23;;;0.50;99.90;;;;;;2113944;28;20028;-70
2021/12/07 04:30:30;;;;;;;59.13;30.85;;;0.40;99.90;;;;;;2122187;27;20031;-70
2021/12/07 04:31:31;;;;;;;54.75;28.92;;;0.40;99.90;;;;;;2122035;27;20039;-70
2021/12/07 04:32:31;;;;;;;57.63;29.73;;;0.40;99.90;;;;;;2113791;28;20042;-71
2021/12/07 04:33:32;;;;;;;55.75;28.73;;;0.30;99.90;;;;;;2113692;28;20028;-71
2021/12/07 04:34:33;;;;;;;53.90;28.48;;;0.30;99.90;;;;;;2123104;27;20023;-70
2021/12/07 04:35:35;;;;;;;57.90;28.63;;;0.30;99.90;;;;;;2123479;27;20384;-71
2021/12/07 04:36:36;;;;;;;56.97;29.00;;;0.30;99.90;;;;;;2123267;27;20556;-71
2021/12/07 04:37:38;;;;;;;54.75;27.48;;;0.30;99.90;;;;;;2123507;27;20035;-69
2021/12/07 04:38:39;;;;;;;54.78;27.50;;;0.30;99.90;;;;;;2122923;27;20091;-69
2021/12/07 04:39:40;;;;;;;53.75;28.05;;;0.20;99.90;;;;;;2122640;27;20081;-70
2021/12/07 04:40:41;;;;;;;55.75;27.95;;;0.20;99.90;;;;;;2123545;27;20032;-70
2021/12/07 04:41:44;;;;;;;56.35;29.65;;;0.20;99.90;;;;;;2122082;27;20031;-71
2021/12/07 04:42:46;;;;;;;57.28;28.98;;;0.20;99.90;;;;;;2122359;27;20055;-68
2021/12/07 04:43:48;;;;;;;61.95;30.60;;;0.20;99.90;;;;;;2122526;27;20031;-70
2021/12/07 04:44:53;;;;;;;56.90;29.42;;;0.20;99.90;;;;;;2122415;27;20039;-70
2021/12/07 04:47:15;;;;;;;58.40;29.27;;;0.20;99.90;;;;;;2122092;27;20035;-71
2021/12/07 04:57:36;;;;;;;56.00;28.52;;;0.20;99.90;;;;;;2121913;27;20043;-70
2021/12/07 04:58:34;;;;;;;57.25;28.85;;;0.10;99.90;;;;;;2122476;27;20060;-69
2021/12/07 04:59:35;;;;;;;59.30;29.63;;;0.10;99.90;;;;;;2121857;27;20414;-69
2021/12/07 05:00:36;;;;;;;53.28;27.98;;;0.10;99.90;;;;;;2121874;27;20109;-70
2021/12/07 05:01:37;;;;;;;55.22;28.27;;;0.10;99.90;;;;;;2120806;27;20031;-70
2021/12/07 05:02:40;;;;;;;58.03;30.13;;;0.10;99.90;;;;;;2121805;27;20023;-68
2021/12/07 05:03:42;;;;;;;60.15;30.85;;;0.10;99.90;;;;;;2122343;27;20029;-71
2021/12/07 05:04:43;;;;;;;58.42;29.52;;;0.10;99.90;;;;;;2122348;27;20031;-71
2021/12/07 05:05:48;;;;;;;58.97;29.92;;;0.10;99.90;;;;;;2122395;27;20027;-70
2021/12/07 05:06:52;;;;;;;61.65;30.23;;;0.10;99.90;;;;;;2122437;27;20030;-70
2021/12/07 05:07:55;;;;;;;59.10;28.85;;;0.10;99.90;;;;;;2122461;27;20035;-69
2021/12/07 05:09:07;;;;;;;59.70;30.33;;;0.10;99.90;;;;;;2122400;27;20139;-71
2021/12/07 05:10:18;;;;;;;55.58;28.45;;;0.00;99.90;;;;;;2122473;27;20007;-70
2021/12/07 05:11:30;;;;;;;58.00;29.27;;;0.00;99.90;;;;;;2121661;27;20065;-70
2021/12/07 05:12:55;;;;;;;53.55;27.70;;;0.00;99.90;;;;;;2121969;27;20023;-71
2021/12/07 05:13:59;;;;;;;58.85;29.02;;;0.00;99.90;;;;;;2122245;27;20048;-71
2021/12/07 05:15:16;;;;;;;58.05;29.20;;;0.00;99.90;;;;;;2122379;27;20038;-71
2021/12/07 05:17:40;;;;;;;58.65;29.33;;;-0.10;99.90;;;;;;2122414;27;20060;-72
2021/12/07 05:24:09;;;;;;;60.03;29.90;;;-0.10;99.90;;;;;;2122320;27;20039;-69
2021/12/07 05:25:33;;;;;;;55.35;28.08;;;-0.10;99.90;;;;;;2121584;27;20050;-70
2021/12/07 05:34:37;;;;;;;56.42;28.17;;;-0.10;99.90;;;;;;2122251;27;20019;-70
2021/12/07 05:37:44;;;;;;;66.25;32.85;;;-0.20;99.90;;;;;;2112617;28;20660;-70
2021/12/07 05:38:53;;;;;;;63.42;32.55;;;-0.20;99.90;;;;;;2122334;27;20113;-69
2021/12/07 05:39:54;;;;;;;59.67;30.30;;;-0.30;99.90;;;;;;2121581;27;20034;-70
2021/12/07 05:40:55;;;;;;;60.50;30.60;;;-0.20;99.90;;;;;;2121532;27;20023;-69
2021/12/07 05:41:56;;;;;;;56.67;29.45;;;-0.20;99.90;;;;;;2120820;27;20075;-69
2021/12/07 05:42:57;;;;;;;56.70;29.52;;;-0.30;99.90;;;;;;2122188;27;20019;-69
2021/12/07 05:43:58;;;;;;;54.15;29.20;;;-0.30;99.90;;;;;;2121404;27;20032;-70
2021/12/07 05:44:58;;;;;;;57.75;29.23;;;-0.30;99.90;;;;;;2121697;27;20045;-70
2021/12/07 05:46:01;;;;;;;51.53;28.25;;;-0.30;99.90;;;;;;2122149;27;20031;-70
2021/12/07 05:47:03;;;;;;;60.45;31.20;;;-0.30;99.90;;;;;;2122318;28;20023;-70
2021/12/07 05:48:06;;;;;;;58.15;30.27;;;-0.20;99.90;;;;;;2121595;28;20042;-70
2021/12/07 05:49:07;;;;;;;57.60;30.40;;;-0.20;99.90;;;;;;2122757;27;20084;-70
2021/12/07 05:50:13;;;;;;;56.72;29.25;;;-0.20;99.90;;;;;;2121979;28;20027;-70
2021/12/07 05:51:13;;;;;;;61.63;30.02;;;-0.20;99.90;;;;;;2122846;28;20082;-71
2021/12/07 05:52:14;;;;;;;53.58;28.30;;;-0.20;99.90;;;;;;2122432;27;20038;-71
2021/12/07 05:53:14;;;;;;;59.72;29.95;;;-0.20;99.90;;;;;;2123752;27;20027;-71
2021/12/07 05:54:15;;;;;;;56.85;29.65;;;-0.20;99.90;;;;;;2123263;27;20031;-71
2021/12/07 05:55:16;;;;;;;56.78;29.98;;;-0.30;99.90;;;;;;2122976;27;20072;-70
2021/12/07 05:56:16;;;;;;;58.90;29.98;;;-0.30;99.90;;;;;;2123441;27;20031;-70
2021/12/07 05:57:17;;;;;;;60.03;30.48;;;-0.30;99.90;;;;;;2123587;27;20098;-70
2021/12/07 05:58:19;;;;;;;60.85;30.30;;;-0.30;99.90;;;;;;2123192;27;20483;-70
2021/12/07 05:59:19;;;;;;;59.10;29.75;;;-0.20;99.90;;;;;;2122327;27;20504;-71
2021/12/07 06:00:25;;;;;;;53.92;28.02;;;-0.30;99.90;;;;;;2121520;27;20024;-71
2021/12/07 06:01:26;;;;;;;57.00;28.85;;;-0.30;99.90;;;;;;2113449;28;20042;-71
2021/12/07 06:02:27;;;;;;;57.58;28.83;;;-0.30;99.90;;;;;;2121359;28;20038;-71
2021/12/07 06:03:27;;;;;;;56.75;28.23;;;-0.20;99.90;;;;;;2121457;27;20104;-71
2021/12/07 06:04:30;;;;;;;60.88;30.10;;;-0.30;99.90;;;;;;2112977;28;20040;-71
2021/12/07 06:05:32;;;;;;;54.55;28.80;;;-0.30;99.90;;;;;;2121606;28;20488;-70
2021/12/07 06:06:32;;;;;;;57.45;29.13;;;-0.30;99.90;;;;;;2122304;27;20063;-71
2021/12/07 06:07:33;;;;;;;56.80;28.98;;;-0.30;99.90;;;;;;2122114;27;20031;-72
2021/12/07 06:08:34;;;;;;;55.60;28.70;;;-0.30;99.90;;;;;;2121375;27;20142;-71
2021/12/07 06:09:34;;;;;;;55.70;28.92;;;-0.30;99.90;;;;;;2113115;28;20555;-71
2021/12/07 06:10:35;;;;;;;59.55;29.33;;;-0.30;99.90;;;;;;2121908;28;20418;-71
2021/12/07 06:11:36;;;;;;;58.90;30.40;;;-0.30;99.90;;;;;;2121445;27;20035;-71
2021/12/07 06:12:36;;;;;;;61.90;31.10;;;-0.30;99.90;;;;;;2122266;27;20028;-70
2021/12/07 06:13:37;;;;;;;58.88;30.23;;;-0.30;99.90;;;;;;2122123;27;20026;-71
2021/12/07 06:14:43;;;;;;;61.95;31.00;;;-0.30;99.90;;;;;;2122432;27;20030;-71
2021/12/07 06:15:45;;;;;;;63.38;30.65;;;-0.30;99.90;;;;;;2123077;27;20020;-70
2021/12/07 06:16:47;;;;;;;58.90;31.02;;;-0.30;99.90;;;;;;2124310;27;20031;-70
2021/12/07 06:17:49;;;;;;;69.38;34.70;;;-0.30;99.90;;;;;;2124071;27;20058;-69
2021/12/07 06:18:50;;;;;;;69.45;34.05;;;-0.30;99.90;;;;;;2124372;27;20496;-70
2021/12/07 06:19:51;;;;;;;62.88;32.08;;;-0.30;99.90;;;;;;2124059;27;20068;-70
2021/12/07 06:20:52;;;;;;;59.08;31.00;;;-0.30;99.90;;;;;;2124094;27;20031;-70
2021/12/07 06:21:53;;;;;;;62.33;31.58;;;-0.30;99.90;;;;;;2122989;28;20082;-70
2021/12/07 06:22:53;;;;;;;57.63;30.23;;;-0.30;99.90;;;;;;2123765;27;20100;-70
2021/12/07 06:23:54;;;;;;;60.72;30.90;;;-0.30;99.90;;;;;;2122314;27;20035;-70
2021/12/07 06:24:54;;;;;;;60.58;32.33;;;-0.30;99.90;;;;;;2122243;27;20026;-71
2021/12/07 06:25:56;;;;;;;64.63;34.22;;;-0.30;99.90;;;;;;2121668;27;20541;-70
2021/12/07 06:26:58;;;;;;;68.25;34.15;;;-0.30;99.90;;;;;;2122101;27;20023;-70
2021/12/07 06:27:58;;;;;;;62.38;34.58;;;-0.30;99.90;;;;;;2121988;27;20290;-70
2021/12/07 06:29:00;;;;;;;65.15;34.15;;;-0.30;99.90;;;;;;2121913;27;20031;-71
2021/12/07 06:30:00;;;;;;;60.00;32.95;;;-0.30;99.90;;;;;;2122032;27;20023;-70
2021/12/07 06:31:01;;;;;;;63.30;32.42;;;-0.40;99.90;;;;;;2121950;27;20084;-70
2021/12/07 06:32:02;;;;;;;61.15;30.50;;;-0.30;99.90;;;;;;2121049;27;20023;-72
2021/12/07 06:33:03;;;;;;;64.60;31.42;;;-0.30;99.90;;;;;;2121864;27;20023;-70
2021/12/07 06:34:03;;;;;;;61.95;29.88;;;-0.30;99.90;;;;;;2121739;27;20484;-71
2021/12/07 06:35:05;;;;;;;57.85;29.45;;;-0.30;99.90;;;;;;2121988;27;20055;-71
2021/12/07 06:36:06;;;;;;;58.95;30.30;;;-0.30;99.90;;;;;;2122020;27;20012;-71
2021/12/07 06:37:07;;;;;;;62.80;31.08;;;-0.30;99.90;;;;;;2122235;27;20107;-71
2021/12/07 06:38:09;;;;;;;64.80;32.30;;;-0.40;99.90;;;;;;2122014;28;20031;-71
2021/12/07 06:39:10;;;;;;;60.53;29.85;;;-0.40;99.90;;;;;;2122248;27;20023;-71
2021/12/07 06:40:12;;;;;;;59.70;30.35;;;-0.40;99.90;;;;;;2112755;28;20017;-72
2021/12/07 06:41:12;;;;;;;65.00;31.40;;;-0.40;99.90;;;;;;2113258;28;20031;-71
2021/12/07 06:42:13;;;;;;;62.70;32.03;;;-0.40;99.90;;;;;;2120840;28;20015;-71
2021/12/07 06:43:14;;;;;;;62.17;31.08;;;-0.40;99.90;;;;;;2122232;27;20023;-71
2021/12/07 06:44:15;;;;;;;60.85;31.88;;;-0.30;99.90;;;;;;2122068;27;20035;-71
2021/12/07 06:45:15;;;;;;;60.65;31.02;;;-0.30;99.90;;;;;;2120238;27;20080;-72
2021/12/07 06:46:16;;;;;;;59.08;30.77;;;-0.30;99.90;;;;;;2123000;27;20420;-70
2021/12/07 06:47:17;;;;;;;57.88;31.33;;;-0.30;99.90;;;;;;2114463;28;20118;-70
2021/12/07 06:48:18;;;;;;;58.95;30.80;;;-0.30;99.90;;;;;;2122888;27;20093;-71